createdAt,value
2022-08-17T00:02:26.275Z,93899.03
2022-08-17T00:04:54.248Z,93892.94
2022-08-17T00:07:20.899Z,93902.75
2022-08-17T00:09:47.692Z,93905.03
2022-08-17T00:12:43.135Z,93897.38
2022-08-17T00:15:01.358Z,93884.16
2022-08-17T00:17:28.010Z,93892.22
2022-08-17T00:19:54.703Z,93895.78
2022-08-17T00:22:35.241Z,93894.81
2022-08-17T00:25:09.103Z,93899.13
2022-08-17T00:27:37.002Z,93896.66
2022-08-17T00:30:06.790Z,93887.59
2022-08-17T00:33:14.625Z,93889.66
2022-08-17T00:35:41.855Z,93889.47
2022-08-17T00:38:10.020Z,93897.84
2022-08-17T00:40:59.004Z,93894.31
2022-08-17T00:43:32.803Z,93888.56
2022-08-17T00:46:03.075Z,93882.03
2022-08-17T00:48:30.984Z,93877.41
2022-08-17T00:51:15.069Z,93873.16
2022-08-17T00:53:51.414Z,93883.78
2022-08-17T00:56:28.526Z,93879.72
2022-08-17T00:58:55.698Z,93882.22
2022-08-17T01:01:23.315Z,93875.88
2022-08-17T01:03:53.396Z,93883.31
2022-08-17T01:06:24.272Z,93871.94
2022-08-17T01:08:57.450Z,93876.75
2022-08-17T01:11:25.408Z,93874.28
2022-08-17T01:13:52.125Z,93874.25
2022-08-17T01:16:30.999Z,93876.75
2022-08-17T01:19:01.389Z,93884.53
2022-08-17T01:21:39.903Z,93886.81
2022-08-17T01:24:07.338Z,93885.84
2022-08-17T01:26:35.598Z,93886.63
2022-08-17T01:29:04.700Z,93890.13
2022-08-17T01:31:45.708Z,93881.56
2022-08-17T01:34:14.791Z,93879.19
2022-08-17T01:36:44.689Z,93882.03
2022-08-17T01:39:31.694Z,93879.19
2022-08-17T01:42:13.511Z,93874.84
2022-08-17T01:44:41.119Z,93872.56
2022-08-17T01:47:07.845Z,93868.66
2022-08-17T01:49:34.581Z,93867.34
2022-08-17T01:52:08.270Z,93870.69
2022-08-17T01:54:37.077Z,93864.84
2022-08-17T01:57:04.546Z,93875.41
2022-08-17T01:59:31.204Z,93865.72
2022-08-17T02:01:58.099Z,93873.22
2022-08-17T02:04:24.894Z,93876.84
2022-08-17T02:06:53.400Z,93881.22
2022-08-17T02:09:25.666Z,93875.97
2022-08-17T02:11:56.217Z,93880.88
2022-08-17T02:14:24.532Z,93881.75
2022-08-17T02:16:51.919Z,93884.91
2022-08-17T02:19:19.163Z,93888.53
2022-08-17T02:21:49.511Z,93883.50
2022-08-17T02:25:00.026Z,93888.00
2022-08-17T02:27:08.244Z,93883.75
2022-08-17T02:29:35.064Z,93881.22
2022-08-17T02:32:01.978Z,93881.88
2022-08-17T02:34:30.036Z,93885.91
2022-08-17T02:36:56.750Z,93885.69
2022-08-17T02:39:23.539Z,93876.16
2022-08-17T02:41:50.458Z,93887.84
2022-08-17T02:44:39.075Z,93879.00
2022-08-17T02:47:04.220Z,93889.56
2022-08-17T02:49:31.107Z,93888.22
2022-08-17T02:51:58.951Z,93889.25
2022-08-17T02:54:39.874Z,93890.38
2022-08-17T02:57:09.256Z,93891.22
2022-08-17T02:59:35.915Z,93895.13
2022-08-17T03:02:11.812Z,93894.97
2022-08-17T03:04:38.715Z,93897.53
2022-08-17T03:07:06.754Z,93898.94
2022-08-17T03:09:33.626Z,93890.66
2022-08-17T03:12:20.489Z,93901.84
2022-08-17T03:14:47.105Z,93895.94
2022-08-17T03:17:17.027Z,93901.19
2022-08-17T03:19:44.671Z,93906.28
2022-08-17T03:22:34.745Z,93911.81
2022-08-17T03:24:58.551Z,93909.34
2022-08-17T03:27:25.246Z,93902.69
2022-08-17T03:29:51.926Z,93911.00
2022-08-17T03:32:20.661Z,93900.06
2022-08-17T03:34:47.767Z,93906.88
2022-08-17T03:37:14.814Z,93902.94
2022-08-17T03:39:41.767Z,93909.50
2022-08-17T03:42:32.448Z,93910.50
2022-08-17T03:45:00.841Z,93912.97
2022-08-17T03:47:46.233Z,93912.63
2022-08-17T03:50:32.556Z,93915.00
2022-08-17T03:53:17.571Z,93921.63
2022-08-17T03:56:03.034Z,93914.91
2022-08-17T03:58:29.730Z,93924.94
2022-08-17T04:00:56.407Z,93916.47
2022-08-17T04:03:23.047Z,93919.91
2022-08-17T04:05:49.719Z,93922.22
2022-08-17T04:08:16.358Z,93923.00
2022-08-17T04:10:45.238Z,93927.16
2022-08-17T04:13:12.674Z,93925.34
2022-08-17T04:15:39.523Z,93933.50
2022-08-17T04:18:07.524Z,93937.69
2022-08-17T04:20:34.798Z,93930.34
2022-08-17T04:23:11.313Z,93936.38
2022-08-17T04:25:42.183Z,93940.78
2022-08-17T04:28:16.294Z,93940.41
2022-08-17T04:30:45.794Z,93945.50
2022-08-17T04:33:21.877Z,93950.94
2022-08-17T04:35:51.644Z,93956.03
2022-08-17T04:38:22.206Z,93951.53
2022-08-17T04:41:07.846Z,93959.56
2022-08-17T04:43:35.862Z,93966.03
2022-08-17T04:46:05.625Z,93955.78
2022-08-17T04:48:37.882Z,93965.31
2022-08-17T04:51:13.861Z,93968.38
2022-08-17T04:53:44.063Z,93967.28
2022-08-17T04:56:16.750Z,93967.03
2022-08-17T04:58:47.895Z,93962.97
2022-08-17T05:01:23.245Z,93964.84
2022-08-17T05:03:56.243Z,93958.28
2022-08-17T05:06:23.783Z,93964.50
2022-08-17T05:08:50.491Z,93973.53
2022-08-17T05:11:17.466Z,93965.63
2022-08-17T05:13:44.820Z,93971.97
2022-08-17T05:16:12.242Z,93971.88
2022-08-17T05:18:39.179Z,93972.75
2022-08-17T05:21:07.082Z,93964.22
2022-08-17T05:23:41.866Z,93972.88
2022-08-17T05:26:26.270Z,93975.06
2022-08-17T05:28:57.016Z,93973.44
2022-08-17T05:31:25.233Z,93979.66
2022-08-17T05:33:52.728Z,93968.63
2022-08-17T05:36:42.079Z,93971.09
2022-08-17T05:39:06.640Z,93976.28
2022-08-17T05:41:33.295Z,93973.34
2022-08-17T05:43:59.903Z,93975.16
2022-08-17T05:46:37.441Z,93982.81
2022-08-17T05:49:08.092Z,93971.13
2022-08-17T05:51:56.561Z,93982.56
2022-08-17T05:55:01.311Z,93978.38
2022-08-17T05:57:43.641Z,93977.53
2022-08-17T06:00:42.073Z,93976.72
2022-08-17T06:03:24.073Z,93972.88
2022-08-17T06:06:15.141Z,93973.56
2022-08-17T06:09:05.279Z,93974.97
2022-08-17T06:11:58.766Z,93972.47
2022-08-17T06:14:43.548Z,93972.47
2022-08-17T06:17:16.771Z,93978.56
2022-08-17T06:19:52.910Z,93965.47
2022-08-17T06:22:23.482Z,93971.66
2022-08-17T06:25:13.743Z,93974.75
2022-08-17T06:27:41.384Z,93975.09
2022-08-17T06:30:41.411Z,93972.88
2022-08-17T06:33:36.794Z,93972.38
2022-08-17T06:36:15.932Z,93971.50
2022-08-17T06:38:58.788Z,93974.13
2022-08-17T06:41:44.760Z,93983.59
2022-08-17T06:44:43.682Z,93981.63
2022-08-17T06:47:28.167Z,93974.97
2022-08-17T06:50:15.760Z,93969.84
2022-08-17T06:52:53.968Z,93971.75
2022-08-17T06:55:38.299Z,93971.16
2022-08-17T06:58:16.245Z,93967.88
2022-08-17T07:00:47.274Z,93962.66
2022-08-17T07:03:29.091Z,93965.66
2022-08-17T07:06:05.710Z,93976.91
2022-08-17T07:09:01.936Z,93965.72
2022-08-17T07:11:42.043Z,93968.88
2022-08-17T07:14:31.769Z,93961.25
2022-08-17T07:17:03.040Z,93969.94
2022-08-17T07:19:33.187Z,93969.94
2022-08-17T07:22:15.589Z,93959.66
2022-08-17T07:24:53.173Z,93961.25
2022-08-17T07:27:21.372Z,93966.41
2022-08-17T07:29:57.078Z,93974.63
2022-08-17T07:32:31.828Z,93969.03
2022-08-17T07:35:23.102Z,93962.22
2022-08-17T07:38:24.388Z,93963.25
2022-08-17T07:41:13.947Z,93962.06
2022-08-17T07:43:40.598Z,93959.91
2022-08-17T07:46:54.835Z,93951.09
2022-08-17T07:49:35.431Z,93953.78
2022-08-17T07:52:47.416Z,93959.13
2022-08-17T07:54:59.428Z,93951.13
2022-08-17T07:57:36.192Z,93954.91
2022-08-17T08:00:03.175Z,93955.03
2022-08-17T08:02:40.312Z,93959.28
2022-08-17T08:05:13.967Z,93952.59
2022-08-17T08:08:28.275Z,93947.72
2022-08-17T08:11:02.173Z,93961.78
2022-08-17T08:13:30.316Z,93956.72
2022-08-17T08:16:17.517Z,93963.25
2022-08-17T08:18:55.517Z,93952.44
2022-08-17T08:21:41.898Z,93954.28
2022-08-17T08:24:42.897Z,93952.97
2022-08-17T08:27:18.245Z,93952.44
2022-08-17T08:30:04.998Z,93952.97
2022-08-17T08:33:09.269Z,93941.81
2022-08-17T08:35:56.638Z,93951.88
2022-08-17T08:38:53.692Z,93945.81
2022-08-17T08:41:25.543Z,93944.06
2022-08-17T08:43:55.127Z,93946.97
2022-08-17T08:46:40.695Z,93941.22
2022-08-17T08:49:59.553Z,93946.09
2022-08-17T08:52:40.518Z,93943.53
2022-08-17T08:55:07.834Z,93942.91
2022-08-17T08:57:40.697Z,93933.91
2022-08-17T09:00:25.882Z,93946.41
2022-08-17T09:03:36.713Z,93946.06
2022-08-17T09:06:58.026Z,93943.22
2022-08-17T09:09:43.269Z,93933.28
2022-08-17T09:12:21.362Z,93944.28
2022-08-17T09:15:13.221Z,93939.56
2022-08-17T09:19:02.816Z,93936.81
2022-08-17T09:21:07.728Z,93939.25
2022-08-17T09:24:12.703Z,93941.78
2022-08-17T09:26:54.768Z,93937.38
2022-08-17T09:29:25.569Z,93934.56
2022-08-17T09:32:04.010Z,93940.72
2022-08-17T09:34:38.738Z,93940.56
2022-08-17T09:37:19.298Z,93943.41
2022-08-17T09:39:55.685Z,93943.31
2022-08-17T09:42:49.863Z,93941.50
2022-08-17T09:45:30.268Z,93948.69
2022-08-17T09:48:20.789Z,93944.25
2022-08-17T09:51:04.818Z,93938.34
2022-08-17T09:53:35.904Z,93937.34
2022-08-17T09:56:08.902Z,93927.97
2022-08-17T09:58:50.931Z,93929.72
2022-08-17T10:01:39.887Z,93925.72
2022-08-17T10:04:20.103Z,93924.34
2022-08-17T10:06:58.883Z,93921.31
2022-08-17T10:09:33.278Z,93922.88
2022-08-17T10:12:17.678Z,93917.38
2022-08-17T10:15:09.485Z,93921.31
2022-08-17T10:17:59.392Z,93921.06
2022-08-17T10:20:46.612Z,93911.47
2022-08-17T10:23:46.813Z,93917.16
2022-08-17T10:26:24.004Z,93910.53
2022-08-17T10:29:00.759Z,93915.78
2022-08-17T10:31:38.417Z,93903.97
2022-08-17T10:34:23.567Z,93918.03
2022-08-17T10:37:11.170Z,93909.19
2022-08-17T10:39:52.214Z,93924.59
2022-08-17T10:42:32.935Z,93907.00
2022-08-17T10:45:26.835Z,93903.78
2022-08-17T10:48:05.033Z,93912.22
2022-08-17T10:50:49.652Z,93901.31
2022-08-17T10:53:50.637Z,93899.25
2022-08-17T10:56:21.355Z,93897.88
2022-08-17T10:58:54.068Z,93896.88
2022-08-17T11:01:44.492Z,93910.75
2022-08-17T11:04:17.649Z,93891.63
2022-08-17T11:07:05.751Z,93895.22
2022-08-17T11:09:55.153Z,93906.28
2022-08-17T11:12:33.885Z,93895.81
2022-08-17T11:15:41.887Z,93902.41
2022-08-17T11:18:33.028Z,93896.31
2022-08-17T11:21:23.255Z,93915.75
2022-08-17T11:24:14.844Z,93895.00
2022-08-17T11:26:48.869Z,93894.81
2022-08-17T11:29:35.496Z,93888.44
2022-08-17T11:32:13.526Z,93914.97
2022-08-17T11:34:44.581Z,93892.63
2022-08-17T11:37:29.695Z,93887.59
2022-08-17T11:40:33.645Z,93893.31
2022-08-17T11:43:07.972Z,93901.41
2022-08-17T11:45:58.365Z,93899.44
2022-08-17T11:49:08.220Z,93902.63
2022-08-17T11:52:13.823Z,93902.94
2022-08-17T11:54:45.368Z,93892.78
2022-08-17T11:57:27.066Z,93910.88
2022-08-17T12:00:12.711Z,93898.06
2022-08-17T12:02:47.908Z,93905.59
2022-08-17T12:05:16.932Z,93909.03
2022-08-17T12:07:49.295Z,93918.16
2022-08-17T12:10:21.535Z,93918.72
2022-08-17T12:12:53.353Z,93921.75
2022-08-17T12:15:29.317Z,93922.13
2022-08-17T12:17:57.483Z,93928.25
2022-08-17T12:20:28.032Z,93927.25
2022-08-17T12:23:16.505Z,93925.78
2022-08-17T12:26:11.454Z,93924.47
2022-08-17T12:28:44.267Z,93924.47
2022-08-17T12:31:25.930Z,93916.81
2022-08-17T12:33:52.974Z,93917.38
2022-08-17T12:36:24.881Z,93911.72
2022-08-17T12:39:12.815Z,93904.53
2022-08-17T12:41:44.567Z,93903.38
2022-08-17T12:44:12.299Z,93905.84
2022-08-17T12:47:01.848Z,93903.50
2022-08-17T12:49:37.476Z,93899.75
2022-08-17T12:52:28.596Z,93893.50
2022-08-17T12:55:00.197Z,93908.78
2022-08-17T12:57:33.859Z,93913.41
2022-08-17T13:00:10.264Z,93913.81
2022-08-17T13:08:48.410Z,93904.22
2022-08-17T13:14:10.086Z,93893.59
2022-08-17T13:16:36.863Z,93887.69
2022-08-17T13:19:13.063Z,93886.09
2022-08-17T13:21:46.168Z,93891.75
2022-08-17T13:24:13.923Z,93886.47
2022-08-17T13:26:57.800Z,93874.66
2022-08-17T13:29:40.143Z,93877.47
2022-08-17T13:32:13.074Z,93890.44
2022-08-17T13:35:12.013Z,93881.59
2022-08-17T13:37:40.668Z,93876.59
2022-08-17T13:40:10.076Z,93875.97
2022-08-17T13:42:51.821Z,93874.66
2022-08-17T13:45:38.846Z,93860.34
2022-08-17T13:48:14.511Z,93869.44
2022-08-17T13:50:41.216Z,93870.78
2022-08-17T13:53:51.238Z,93860.81
2022-08-17T13:56:38.250Z,93861.28
2022-08-17T13:59:13.074Z,93872.69
2022-08-17T14:01:53.533Z,93867.84
2022-08-17T14:04:31.703Z,93857.34
2022-08-17T14:07:05.473Z,93851.91
2022-08-17T14:09:37.335Z,93847.81
2022-08-17T14:12:09.690Z,93852.75
2022-08-17T14:14:37.118Z,93852.94
2022-08-17T14:17:07.887Z,93851.22
2022-08-17T14:19:34.941Z,93858.38
2022-08-17T14:22:02.209Z,93852.84
2022-08-17T14:24:32.163Z,93866.22
2022-08-17T14:27:00.504Z,93854.06
2022-08-17T14:29:28.994Z,93859.44
2022-08-17T14:31:59.380Z,93863.19
2022-08-17T14:34:26.040Z,93854.94
2022-08-17T14:36:52.781Z,93847.78
2022-08-17T14:39:20.161Z,93851.69
2022-08-17T14:41:47.256Z,93848.09
2022-08-17T14:44:14.005Z,93857.25
2022-08-17T14:46:43.060Z,93858.41
2022-08-17T14:49:11.880Z,93853.84
2022-08-17T14:51:44.320Z,93855.63
2022-08-17T14:54:25.599Z,93850.16
2022-08-17T14:57:14.816Z,93858.59
2022-08-17T14:59:46.281Z,93845.47
2022-08-17T15:02:13.557Z,93851.34
2022-08-17T15:04:45.342Z,93857.91
2022-08-17T15:07:12.407Z,93852.38
2022-08-17T15:13:27.615Z,93855.34
2022-08-17T15:15:54.681Z,93849.31
2022-08-17T15:18:21.603Z,93855.03
2022-08-17T15:20:50.131Z,93852.59
2022-08-17T15:23:19.700Z,93858.66
2022-08-17T15:25:48.659Z,93858.59
2022-08-17T15:28:16.100Z,93862.44
2022-08-17T15:30:44.823Z,93856.81
2022-08-17T15:33:16.760Z,93856.00
2022-08-17T15:35:43.836Z,93862.59
2022-08-17T15:38:13.447Z,93860.13
2022-08-17T15:40:45.342Z,93859.13
2022-08-17T15:43:15.974Z,93859.53
2022-08-17T15:45:43.121Z,93854.31
2022-08-17T15:48:10.104Z,93851.63
2022-08-17T15:50:37.464Z,93858.81
2022-08-17T15:53:04.948Z,93864.69
2022-08-17T15:55:33.338Z,93860.63
2022-08-17T15:58:00.460Z,93871.44
2022-08-17T16:00:29.245Z,93858.25
2022-08-17T16:03:44.388Z,93867.28
2022-08-17T16:05:46.694Z,93857.00
2022-08-17T16:08:18.476Z,93861.72
2022-08-17T16:10:47.539Z,93864.09
2022-08-17T16:13:17.141Z,93862.13
2022-08-17T16:15:48.675Z,93861.69
2022-08-17T16:18:25.610Z,93867.25
2022-08-17T16:20:53.321Z,93860.88
2022-08-17T16:23:20.321Z,93870.22
2022-08-17T16:25:52.748Z,93863.66
2022-08-17T16:28:21.901Z,93869.81
2022-08-17T16:30:48.605Z,93870.69
2022-08-17T16:33:16.737Z,93877.53
2022-08-17T16:35:43.389Z,93869.06
2022-08-17T16:38:10.940Z,93867.03
2022-08-17T16:40:38.131Z,93874.78
2022-08-17T16:43:10.537Z,93871.84
2022-08-17T16:45:40.857Z,93876.41
2022-08-17T16:48:09.253Z,93881.16
2022-08-17T16:50:36.913Z,93875.53
2022-08-17T16:53:16.232Z,93874.50
2022-08-17T16:55:49.663Z,93884.94
2022-08-17T16:58:16.381Z,93888.16
2022-08-17T17:00:45.121Z,93885.78
2022-08-17T17:03:19.792Z,93893.19
2022-08-17T17:06:39.984Z,93885.75
2022-08-17T17:09:12.702Z,93893.81
2022-08-17T17:11:43.613Z,93897.41
2022-08-17T17:14:16.869Z,93896.56
2022-08-17T17:16:48.820Z,93897.06
2022-08-17T17:19:57.638Z,93905.06
2022-08-17T17:22:30.179Z,93902.75
2022-08-17T17:25:08.437Z,93907.34
2022-08-17T17:27:59.848Z,93906.28
2022-08-17T17:30:52.442Z,93922.88
2022-08-17T17:33:36.104Z,93916.72
2022-08-17T17:36:18.875Z,93915.56
2022-08-17T17:38:52.918Z,93922.75
2022-08-17T17:41:34.364Z,93925.78
2022-08-17T17:44:12.313Z,93926.41
2022-08-17T17:46:51.574Z,93926.84
2022-08-17T17:49:18.850Z,93932.06
2022-08-17T17:52:19.284Z,93936.00
2022-08-17T17:55:07.559Z,93939.44
2022-08-17T17:57:44.853Z,93934.81
2022-08-17T18:00:21.846Z,93940.44
2022-08-17T18:03:04.595Z,93949.63
2022-08-17T18:05:36.866Z,93953.91
2022-08-17T18:08:12.108Z,93949.66
2022-08-17T18:10:41.589Z,93960.78
2022-08-17T18:13:27.317Z,93971.94
2022-08-17T18:15:54.462Z,93964.91
2022-08-17T18:18:37.773Z,93963.69
2022-08-17T18:21:19.554Z,93964.13
2022-08-17T18:23:56.956Z,93964.44
2022-08-17T18:26:32.887Z,93967.81
2022-08-17T18:29:01.387Z,93978.06
2022-08-17T18:31:28.012Z,93976.09
2022-08-17T18:34:43.427Z,93974.59
2022-08-17T18:37:05.079Z,93983.00
2022-08-17T18:39:31.767Z,93982.22
2022-08-17T18:42:03.612Z,93985.75
2022-08-17T18:44:32.711Z,93990.63
2022-08-17T18:47:16.720Z,93986.03
2022-08-17T18:49:48.962Z,93987.13
2022-08-17T18:52:21.538Z,93996.56
2022-08-17T18:55:03.417Z,93996.88
2022-08-17T18:57:34.932Z,93985.75
2022-08-17T19:00:10.191Z,93990.94
2022-08-17T19:02:53.532Z,93993.69
2022-08-17T19:05:29.406Z,93991.69
2022-08-17T19:08:19.274Z,94000.69
2022-08-17T19:10:49.098Z,94000.25
2022-08-17T19:13:24.576Z,94001.47
2022-08-17T19:16:14.586Z,94001.63
2022-08-17T19:19:01.854Z,94004.06
2022-08-17T19:21:46.878Z,94005.59
2022-08-17T19:24:26.473Z,94004.81
2022-08-17T19:27:15.855Z,93999.19
2022-08-17T19:30:05.370Z,94014.09
2022-08-17T19:32:35.802Z,94008.47
2022-08-17T19:35:04.528Z,94008.63
2022-08-17T19:37:47.306Z,94010.44
2022-08-17T19:40:51.817Z,94008.75
2022-08-17T19:43:47.999Z,94007.31
2022-08-17T19:46:26.025Z,94012.56
2022-08-17T19:48:55.637Z,94015.13
2022-08-17T19:51:50.666Z,94009.13
2022-08-17T19:54:31.029Z,94011.69
2022-08-17T19:57:27.409Z,94011.19
2022-08-17T20:00:01.041Z,94016.25
2022-08-17T20:03:06.171Z,94015.81
2022-08-17T20:06:08.575Z,94010.66
2022-08-17T20:08:29.744Z,94010.34
2022-08-17T20:11:10.357Z,94024.19
2022-08-17T20:13:40.845Z,94012.59
2022-08-17T20:16:08.007Z,94016.78
2022-08-17T20:18:43.957Z,94018.16
2022-08-17T20:21:23.967Z,94019.66
2022-08-17T20:24:02.139Z,94016.22
2022-08-17T20:26:58.967Z,94014.94
2022-08-17T20:29:40.219Z,94009.41
2022-08-17T20:32:18.902Z,94025.84
2022-08-17T20:34:47.290Z,94024.47
2022-08-17T20:37:14.270Z,94023.84
2022-08-17T20:39:45.035Z,94019.59
2022-08-17T20:42:20.685Z,94021.56
2022-08-17T20:44:53.970Z,94022.66
2022-08-17T20:47:34.216Z,94021.13
2022-08-17T20:50:00.836Z,94022.66
2022-08-17T20:52:45.613Z,94019.75
2022-08-17T20:55:34.110Z,94033.13
2022-08-17T20:58:30.891Z,94027.88
2022-08-17T21:00:57.692Z,94031.84
2022-08-17T21:03:25.049Z,94024.25
2022-08-17T21:06:17.104Z,94027.44
2022-08-17T21:08:57.743Z,94023.34
2022-08-17T21:11:56.975Z,94022.97
2022-08-17T21:14:36.730Z,94026.88
2022-08-17T21:17:29.742Z,94030.22
2022-08-17T21:20:32.604Z,94019.47
2022-08-17T21:23:11.261Z,94009.41
2022-08-17T21:25:51.929Z,94019.13
2022-08-17T21:28:21.371Z,94026.56
2022-08-17T21:30:56.738Z,94031.94
2022-08-17T21:33:25.328Z,94026.56
2022-08-17T21:36:16.830Z,94028.41
2022-08-17T21:38:53.399Z,94035.47
2022-08-17T21:41:28.113Z,94035.66
2022-08-17T21:44:05.567Z,94040.22
2022-08-17T21:46:37.659Z,94042.66
2022-08-17T21:49:13.914Z,94046.13
2022-08-17T21:51:50.023Z,94038.97
2022-08-17T21:54:41.770Z,94042.75
2022-08-17T21:57:17.589Z,94049.16
2022-08-17T21:59:44.662Z,94056.22
2022-08-17T22:02:51.408Z,94047.63
2022-08-17T22:05:29.987Z,94044.41
2022-08-17T22:08:02.611Z,94045.78
2022-08-17T22:10:37.754Z,94041.28
2022-08-17T22:13:16.538Z,94044.69
2022-08-17T22:15:49.699Z,94045.28
2022-08-17T22:18:27.303Z,94040.97
2022-08-17T22:20:57.020Z,94043.78
2022-08-17T22:23:42.157Z,94037.91
2022-08-17T22:26:12.766Z,94033.34
2022-08-17T22:28:50.439Z,94033.47
2022-08-17T22:31:28.810Z,94037.16
2022-08-17T22:33:59.859Z,94041.81
2022-08-17T22:36:34.514Z,94029.31
2022-08-17T22:39:07.500Z,94034.16
2022-08-17T22:41:54.384Z,94037.28
2022-08-17T22:44:26.336Z,94033.63
2022-08-17T22:47:11.270Z,94034.34
2022-08-17T22:49:54.132Z,94050.94
2022-08-17T22:53:00.536Z,94033.69
2022-08-17T22:55:48.310Z,94032.31
2022-08-17T22:58:42.866Z,94030.50
2022-08-17T23:01:32.514Z,94029.78
2022-08-17T23:04:02.557Z,94025.69
2022-08-17T23:06:29.782Z,94030.09
2022-08-17T23:08:57.731Z,94029.50
2022-08-17T23:11:36.955Z,94032.66
2022-08-17T23:14:15.757Z,94024.59
2022-08-17T23:16:42.714Z,94030.38
2022-08-17T23:19:15.637Z,94023.81
2022-08-17T23:21:46.232Z,94022.47
2022-08-17T23:24:22.880Z,94023.00
2022-08-17T23:26:49.710Z,94019.19
2022-08-17T23:29:16.686Z,94021.16
2022-08-17T23:31:43.485Z,94017.34
2022-08-17T23:34:13.270Z,94016.06
2022-08-17T23:36:39.934Z,94009.84
2022-08-17T23:39:07.463Z,94013.81
2022-08-17T23:41:38.610Z,94016.69
2022-08-17T23:44:06.470Z,94026.63
2022-08-17T23:46:34.558Z,94018.72
2022-08-17T23:49:01.439Z,94018.06
2022-08-17T23:51:31.811Z,94017.72
2022-08-17T23:54:08.187Z,94017.63
2022-08-17T23:56:38.507Z,94018.00
2022-08-17T23:59:05.631Z,94014.09
